createdAt,value
2023-01-21T00:00:29.184Z,0.60
2023-01-21T00:01:31.795Z,0.60
2023-01-21T00:02:33.659Z,0.60
2023-01-21T00:03:35.561Z,0.60
2023-01-21T00:04:40.245Z,0.60
2023-01-21T00:05:42.395Z,0.60
2023-01-21T00:06:44.364Z,0.60
2023-01-21T00:07:46.894Z,0.60
2023-01-21T00:08:48.608Z,0.60
2023-01-21T00:09:50.497Z,0.60
2023-01-21T00:10:52.223Z,0.60
2023-01-21T00:11:54.089Z,0.60
2023-01-21T00:12:55.833Z,0.60
2023-01-21T00:13:58.747Z,0.60
2023-01-21T00:15:00.438Z,0.60
2023-01-21T00:16:04.063Z,0.60
2023-01-21T00:17:05.970Z,0.60
2023-01-21T00:18:08.370Z,0.60
2023-01-21T00:19:10.326Z,0.60
2023-01-21T00:20:15.681Z,0.60
2023-01-21T00:21:17.772Z,0.60
2023-01-21T00:22:19.658Z,0.60
2023-01-21T00:23:21.395Z,0.60
2023-01-21T00:24:24.422Z,0.60
2023-01-21T00:25:26.263Z,0.60
2023-01-21T00:26:28.149Z,0.60
2023-01-21T00:27:30.073Z,0.60
2023-01-21T00:28:34.335Z,0.60
2023-01-21T00:29:36.118Z,0.60
2023-01-21T00:30:39.243Z,0.60
2023-01-21T00:31:41.395Z,0.60
2023-01-21T00:32:43.305Z,0.60
2023-01-21T00:33:45.077Z,0.60
2023-01-21T00:34:46.882Z,0.60
2023-01-21T00:35:57.821Z,0.60
2023-01-21T00:36:59.624Z,0.60
2023-01-21T00:38:01.420Z,0.60
2023-01-21T00:39:03.424Z,0.60
2023-01-21T00:40:06.697Z,0.60
2023-01-21T00:41:13.252Z,0.60
2023-01-21T00:42:15.082Z,0.60
2023-01-21T00:43:16.847Z,0.60
2023-01-21T00:44:19.567Z,0.60
2023-01-21T00:45:21.533Z,0.60
2023-01-21T00:46:23.503Z,0.60
2023-01-21T00:47:26.477Z,0.60
2023-01-21T00:48:28.658Z,0.60
2023-01-21T00:49:30.799Z,0.60
2023-01-21T00:50:32.544Z,0.60
2023-01-21T00:51:34.349Z,0.60
2023-01-21T00:52:36.360Z,0.60
2023-01-21T00:53:41.944Z,0.50
2023-01-21T00:54:44.424Z,0.50
2023-01-21T00:55:46.734Z,0.60
2023-01-21T00:56:48.627Z,0.50
2023-01-21T00:57:50.696Z,0.50
2023-01-21T00:58:52.729Z,0.50
2023-01-21T00:59:54.639Z,0.50
2023-01-21T01:01:07.911Z,0.50
2023-01-21T01:02:10.324Z,0.40
2023-01-21T01:03:12.095Z,0.40
2023-01-21T01:04:14.550Z,0.40
2023-01-21T01:05:16.619Z,0.40
2023-01-21T01:06:21.258Z,0.40
2023-01-21T01:07:23.061Z,0.40
2023-01-21T01:08:24.892Z,0.40
2023-01-21T01:09:26.960Z,0.40
2023-01-21T01:10:28.855Z,0.40
2023-01-21T01:11:32.166Z,0.40
2023-01-21T01:12:35.517Z,0.40
2023-01-21T01:13:37.961Z,0.40
2023-01-21T01:14:40.134Z,0.40
2023-01-21T01:15:41.906Z,0.40
2023-01-21T01:16:43.850Z,0.40
2023-01-21T01:17:45.859Z,0.40
2023-01-21T01:18:49.083Z,0.40
2023-01-21T01:19:52.457Z,0.40
2023-01-21T01:20:54.281Z,0.40
2023-01-21T01:21:56.167Z,0.40
2023-01-21T01:22:57.937Z,0.40
2023-01-21T01:24:00.725Z,0.40
2023-01-21T01:25:02.548Z,0.40
2023-01-21T01:26:07.113Z,0.40
2023-01-21T01:27:08.890Z,0.40
2023-01-21T01:28:10.847Z,0.40
2023-01-21T01:29:33.489Z,0.40
2023-01-21T01:30:37.262Z,0.40
2023-01-21T01:31:39.999Z,0.40
2023-01-21T01:32:42.020Z,0.40
2023-01-21T01:33:44.442Z,0.40
2023-01-21T01:34:47.499Z,0.40
2023-01-21T01:35:49.724Z,0.40
2023-01-21T01:36:51.494Z,0.40
2023-01-21T01:37:54.194Z,0.40
2023-01-21T01:38:56.962Z,0.40
2023-01-21T01:40:00.689Z,0.40
2023-01-21T01:41:03.459Z,0.40
2023-01-21T01:42:10.241Z,0.40
2023-01-21T01:43:27.433Z,0.40
2023-01-21T01:44:56.941Z,0.40
2023-01-21T01:46:00.606Z,0.40
2023-01-21T01:47:04.433Z,0.40
2023-01-21T01:48:14.108Z,0.40
2023-01-21T01:49:19.920Z,0.40
2023-01-21T01:50:22.269Z,0.40
2023-01-21T01:51:55.205Z,0.40
2023-01-21T01:53:00.832Z,0.40
2023-01-21T01:54:03.093Z,0.30
2023-01-21T01:55:06.268Z,0.30
2023-01-21T01:56:08.433Z,0.30
2023-01-21T01:57:13.089Z,0.30
2023-01-21T01:58:17.227Z,0.30
2023-01-21T01:59:19.672Z,0.30
2023-01-21T02:00:21.819Z,0.30
2023-01-21T02:01:24.204Z,0.30
2023-01-21T02:02:26.086Z,0.30
2023-01-21T02:03:45.995Z,0.30
2023-01-21T02:04:53.103Z,0.30
2023-01-21T02:05:55.765Z,0.30
2023-01-21T02:06:58.204Z,0.30
2023-01-21T02:08:00.924Z,0.30
2023-01-21T02:09:03.501Z,0.30
2023-01-21T02:10:08.289Z,0.30
2023-01-21T02:11:20.296Z,0.30
2023-01-21T02:12:23.551Z,0.30
2023-01-21T02:13:28.441Z,0.30
2023-01-21T02:14:31.777Z,0.30
2023-01-21T02:15:43.753Z,0.30
2023-01-21T02:17:27.877Z,0.30
2023-01-21T02:18:47.912Z,0.30
2023-01-21T02:19:52.493Z,0.30
2023-01-21T02:21:25.482Z,0.30
2023-01-21T02:22:47.972Z,0.30
2023-01-21T02:24:20.125Z,0.30
2023-01-21T02:26:08.030Z,0.30
2023-01-21T02:27:36.417Z,0.30
2023-01-21T02:28:46.244Z,0.30
2023-01-21T02:30:22.844Z,0.30
2023-01-21T02:31:44.392Z,0.30
2023-01-21T02:33:23.048Z,0.30
2023-01-21T02:34:39.843Z,0.30
2023-01-21T02:35:56.141Z,0.30
2023-01-21T02:37:38.771Z,0.30
2023-01-21T02:39:15.001Z,0.20
2023-01-21T02:40:32.919Z,0.20
2023-01-21T02:42:00.745Z,0.20
2023-01-21T02:43:16.716Z,0.20
2023-01-21T02:44:33.685Z,0.20
2023-01-21T02:45:53.632Z,0.20
2023-01-21T02:47:18.550Z,0.20
2023-01-21T02:48:45.480Z,0.20
2023-01-21T02:49:56.373Z,0.20
2023-01-21T02:50:58.752Z,0.20
2023-01-21T02:52:00.901Z,0.20
2023-01-21T02:53:04.909Z,0.10
2023-01-21T02:54:38.838Z,0.20
2023-01-21T02:55:43.372Z,0.20
2023-01-21T02:56:45.317Z,0.10
2023-01-21T02:57:55.144Z,0.10
2023-01-21T02:59:01.209Z,0.10
2023-01-21T03:00:09.072Z,0.10
2023-01-21T03:01:23.264Z,0.10
2023-01-21T03:02:52.866Z,0.10
2023-01-21T03:04:51.359Z,0.10
2023-01-21T03:06:15.202Z,0.10
2023-01-21T03:07:29.072Z,0.20
2023-01-21T03:08:48.832Z,0.10
2023-01-21T03:09:50.665Z,0.10
2023-01-21T03:11:09.872Z,0.10
2023-01-21T03:12:16.991Z,0.10
2023-01-21T03:13:49.786Z,0.10
2023-01-21T03:15:18.999Z,0.10
2023-01-21T03:16:44.322Z,0.10
2023-01-21T03:18:03.395Z,0.10
2023-01-21T03:19:09.878Z,0.10
2023-01-21T03:20:15.228Z,0.10
2023-01-21T03:21:25.513Z,0.10
2023-01-21T03:22:32.893Z,0.10
2023-01-21T03:23:39.623Z,0.10
2023-01-21T03:24:44.724Z,0.10
2023-01-21T03:25:49.092Z,0.10
2023-01-21T03:26:54.014Z,0.10
2023-01-21T03:27:57.532Z,0.10
2023-01-21T03:29:06.083Z,0.10
2023-01-21T03:30:15.968Z,0.10
2023-01-21T03:31:25.714Z,0.10
2023-01-21T03:32:31.239Z,0.10
2023-01-21T03:33:36.442Z,0.10
2023-01-21T03:34:42.705Z,0.10
2023-01-21T03:35:47.520Z,0.10
2023-01-21T03:37:02.287Z,0.10
2023-01-21T03:38:26.077Z,0.10
2023-01-21T03:39:39.382Z,0.10
2023-01-21T03:40:47.055Z,0.10
2023-01-21T03:41:49.441Z,0.00
2023-01-21T03:42:51.617Z,0.10
2023-01-21T03:43:53.545Z,0.00
2023-01-21T03:44:55.659Z,0.10
2023-01-21T03:46:04.921Z,0.10
2023-01-21T03:47:16.037Z,0.00
2023-01-21T03:48:26.469Z,0.00
2023-01-21T03:49:31.352Z,0.00
2023-01-21T03:50:38.752Z,0.00
2023-01-21T03:51:46.738Z,0.00
2023-01-21T03:52:49.625Z,0.00
2023-01-21T03:53:59.075Z,0.00
2023-01-21T03:55:00.940Z,0.00
2023-01-21T03:56:02.920Z,0.00
2023-01-21T03:57:04.683Z,0.00
2023-01-21T03:58:06.459Z,0.00
2023-01-21T03:59:08.229Z,0.00
2023-01-21T04:00:10.666Z,0.00
2023-01-21T04:01:12.634Z,0.00
2023-01-21T04:02:20.206Z,0.00
2023-01-21T04:03:22.164Z,0.00
2023-01-21T04:04:23.931Z,0.00
2023-01-21T04:05:25.829Z,0.00
2023-01-21T04:06:27.587Z,0.00
2023-01-21T04:07:29.675Z,0.00
2023-01-21T04:08:31.513Z,0.00
2023-01-21T04:09:33.465Z,0.00
2023-01-21T04:10:35.244Z,0.00
2023-01-21T04:11:37.037Z,0.00
2023-01-21T04:12:39.091Z,0.00
2023-01-21T04:13:40.859Z,0.00
2023-01-21T04:14:42.638Z,0.00
2023-01-21T04:15:44.385Z,0.00
2023-01-21T04:16:46.169Z,0.00
2023-01-21T04:17:48.144Z,0.00
2023-01-21T04:18:50.059Z,0.00
2023-01-21T04:19:51.888Z,0.00
2023-01-21T04:20:53.950Z,0.00
2023-01-21T04:21:55.834Z,0.00
2023-01-21T04:22:57.587Z,0.00
2023-01-21T04:23:59.421Z,0.00
2023-01-21T04:25:01.172Z,0.00
2023-01-21T04:26:03.020Z,0.00
2023-01-21T04:27:04.795Z,0.00
2023-01-21T04:28:09.956Z,0.00
2023-01-21T04:29:11.780Z,-0.10
2023-01-21T04:30:14.866Z,-0.10
2023-01-21T04:31:17.003Z,-0.10
2023-01-21T04:32:18.993Z,-0.10
2023-01-21T04:33:21.049Z,-0.10
2023-01-21T04:34:22.857Z,-0.10
2023-01-21T04:35:24.729Z,-0.10
2023-01-21T04:36:26.776Z,-0.10
2023-01-21T04:37:28.936Z,-0.10
2023-01-21T04:38:30.800Z,-0.10
2023-01-21T04:39:32.566Z,-0.10
2023-01-21T04:40:34.462Z,-0.10
2023-01-21T04:41:36.239Z,0.00
2023-01-21T04:42:38.980Z,-0.10
2023-01-21T04:43:40.779Z,-0.10
2023-01-21T04:44:44.990Z,-0.10
2023-01-21T04:45:46.981Z,-0.10
2023-01-21T04:46:48.809Z,-0.10
2023-01-21T04:47:50.866Z,-0.10
2023-01-21T04:48:52.607Z,-0.10
2023-01-21T04:49:54.461Z,-0.10
2023-01-21T04:50:56.472Z,-0.10
2023-01-21T04:51:58.389Z,-0.20
2023-01-21T04:53:00.229Z,-0.20
2023-01-21T04:54:02.085Z,-0.20
2023-01-21T04:55:05.148Z,-0.30
2023-01-21T04:56:07.248Z,-0.30
2023-01-21T04:57:09.344Z,-0.30
2023-01-21T04:58:12.687Z,-0.30
2023-01-21T04:59:14.518Z,-0.40
2023-01-21T05:00:17.185Z,-0.40
2023-01-21T05:01:19.047Z,-0.40
2023-01-21T05:02:20.870Z,-0.50
2023-01-21T05:03:22.927Z,-0.50
2023-01-21T05:04:24.778Z,-0.50
2023-01-21T05:05:27.292Z,-0.40
2023-01-21T05:06:29.236Z,-0.40
2023-01-21T05:07:31.154Z,-0.40
2023-01-21T05:08:32.962Z,-0.40
2023-01-21T05:09:34.861Z,-0.30
2023-01-21T05:10:36.706Z,-0.30
2023-01-21T05:11:38.439Z,-0.30
2023-01-21T05:12:40.179Z,-0.20
2023-01-21T05:13:41.934Z,-0.20
2023-01-21T05:14:43.748Z,-0.20
2023-01-21T05:15:45.613Z,-0.20
2023-01-21T05:16:47.637Z,-0.20
2023-01-21T05:17:49.541Z,-0.20
2023-01-21T05:18:51.774Z,-0.20
2023-01-21T05:19:53.796Z,-0.20
2023-01-21T05:20:57.099Z,-0.20
2023-01-21T05:21:58.917Z,-0.20
2023-01-21T05:23:00.827Z,-0.20
2023-01-21T05:24:02.755Z,-0.30
2023-01-21T05:25:05.465Z,-0.30
2023-01-21T05:26:07.334Z,-0.30
2023-01-21T05:27:09.217Z,-0.30
2023-01-21T05:28:10.987Z,-0.40
2023-01-21T05:29:12.739Z,-0.40
2023-01-21T05:30:15.059Z,-0.50
2023-01-21T05:31:17.131Z,-0.50
2023-01-21T05:32:19.487Z,-0.50
2023-01-21T05:33:26.255Z,-0.50
2023-01-21T05:34:28.246Z,-0.60
2023-01-21T05:35:30.852Z,-0.50
2023-01-21T05:36:32.668Z,-0.50
2023-01-21T05:37:34.481Z,-0.50
2023-01-21T05:38:36.259Z,-0.50
2023-01-21T05:39:38.824Z,-0.60
2023-01-21T05:40:40.913Z,-0.50
2023-01-21T05:41:42.692Z,-0.50
2023-01-21T05:42:44.689Z,-0.50
2023-01-21T05:43:46.508Z,-0.50
2023-01-21T05:44:48.464Z,-0.50
2023-01-21T05:45:51.031Z,-0.50
2023-01-21T05:46:52.795Z,-0.50
2023-01-21T05:47:54.665Z,-0.50
2023-01-21T05:48:56.615Z,-0.50
2023-01-21T05:49:58.479Z,-0.50
2023-01-21T05:51:00.308Z,-0.50
2023-01-21T05:52:02.239Z,-0.60
2023-01-21T05:53:04.727Z,-0.60
2023-01-21T05:54:06.570Z,-0.60
2023-01-21T05:55:08.630Z,-0.60
2023-01-21T05:56:11.103Z,-0.60
2023-01-21T05:57:12.864Z,-0.60
2023-01-21T05:58:14.751Z,-0.60
2023-01-21T05:59:16.464Z,-0.60
2023-01-21T06:00:18.958Z,-0.60
2023-01-21T06:01:20.982Z,-0.60
2023-01-21T06:02:23.037Z,-0.60
2023-01-21T06:03:25.497Z,-0.60
2023-01-21T06:04:31.270Z,-0.60
2023-01-21T06:05:33.049Z,-0.60
2023-01-21T06:06:34.778Z,-0.60
2023-01-21T06:07:36.635Z,-0.60
2023-01-21T06:08:38.536Z,-0.60
2023-01-21T06:09:40.462Z,-0.60
2023-01-21T06:10:42.364Z,-0.60
2023-01-21T06:11:44.136Z,-0.70
2023-01-21T06:12:52.300Z,-0.70
2023-01-21T06:13:54.112Z,-0.70
2023-01-21T06:14:55.971Z,-0.70
2023-01-21T06:15:58.142Z,-0.70
2023-01-21T06:17:00.048Z,-0.70
2023-01-21T06:18:01.838Z,-0.70
2023-01-21T06:19:03.657Z,-0.70
2023-01-21T06:20:06.229Z,-0.70
2023-01-21T06:21:09.084Z,-0.60
2023-01-21T06:22:15.705Z,-0.70
2023-01-21T06:23:17.615Z,-0.60
2023-01-21T06:24:19.757Z,-0.60
2023-01-21T06:25:22.084Z,-0.60
2023-01-21T06:26:26.186Z,-0.60
2023-01-21T06:27:29.629Z,-0.60
2023-01-21T06:28:31.752Z,-0.50
2023-01-21T06:29:33.687Z,-0.50
2023-01-21T06:30:35.492Z,-0.50
2023-01-21T06:31:37.493Z,-0.50
2023-01-21T06:32:39.505Z,-0.50
2023-01-21T06:33:41.229Z,-0.50
2023-01-21T06:34:45.216Z,-0.50
2023-01-21T06:35:48.399Z,-0.50
2023-01-21T06:36:50.242Z,-0.50
2023-01-21T06:37:52.180Z,-0.50
2023-01-21T06:38:55.662Z,-0.50
2023-01-21T06:39:57.520Z,-0.50
2023-01-21T06:40:59.328Z,-0.50
2023-01-21T06:42:01.560Z,-0.50
2023-01-21T06:43:03.476Z,-0.50
2023-01-21T06:44:05.773Z,-0.50
2023-01-21T06:45:08.298Z,-0.50
2023-01-21T06:46:11.757Z,-0.50
2023-01-21T06:47:14.526Z,-0.50
2023-01-21T06:48:16.286Z,-0.50
2023-01-21T06:49:18.067Z,-0.50
2023-01-21T06:50:20.008Z,-0.50
2023-01-21T06:51:21.978Z,-0.50
2023-01-21T06:52:24.040Z,-0.50
2023-01-21T06:53:25.860Z,-0.50
2023-01-21T06:54:30.322Z,-0.50
2023-01-21T06:55:32.384Z,-0.40
2023-01-21T06:56:34.443Z,-0.40
2023-01-21T06:57:37.767Z,-0.40
2023-01-21T06:58:41.937Z,-0.30
2023-01-21T06:59:44.752Z,-0.30
2023-01-21T07:00:46.813Z,-0.30
2023-01-21T07:01:48.757Z,-0.30
2023-01-21T07:02:50.802Z,-0.20
2023-01-21T07:03:52.687Z,-0.20
2023-01-21T07:04:54.568Z,-0.20
2023-01-21T07:05:56.408Z,-0.20
2023-01-21T07:06:59.349Z,-0.20
2023-01-21T07:08:01.762Z,-0.20
2023-01-21T07:09:04.114Z,-0.20
2023-01-21T07:10:06.593Z,-0.20
2023-01-21T07:11:08.611Z,-0.20
2023-01-21T07:12:10.507Z,-0.20
2023-01-21T07:13:12.327Z,-0.20
2023-01-21T07:14:14.178Z,-0.20
2023-01-21T07:15:16.831Z,-0.20
2023-01-21T07:16:19.074Z,-0.20
2023-01-21T07:17:21.628Z,-0.10
2023-01-21T07:18:23.433Z,-0.20
2023-01-21T07:19:25.261Z,-0.20
2023-01-21T07:20:27.093Z,-0.10
2023-01-21T07:21:29.213Z,-0.10
2023-01-21T07:22:32.977Z,-0.10
2023-01-21T07:23:34.818Z,-0.10
2023-01-21T07:24:37.086Z,-0.20
2023-01-21T07:25:38.835Z,-0.20
2023-01-21T07:26:41.644Z,-0.10
2023-01-21T07:27:43.624Z,-0.10
2023-01-21T07:28:45.491Z,-0.10
2023-01-21T07:29:47.312Z,-0.10
2023-01-21T07:30:49.122Z,-0.10
2023-01-21T07:31:52.272Z,-0.10
2023-01-21T07:32:54.109Z,-0.10
2023-01-21T07:33:55.851Z,-0.10
2023-01-21T07:34:57.650Z,-0.10
2023-01-21T07:35:59.456Z,-0.10
2023-01-21T07:37:03.207Z,-0.10
2023-01-21T07:38:05.234Z,0.00
2023-01-21T07:39:07.117Z,0.00
2023-01-21T07:40:09.427Z,-0.10
2023-01-21T07:41:12.270Z,0.00
2023-01-21T07:42:14.034Z,0.00
2023-01-21T07:43:16.339Z,0.00
2023-01-21T07:44:19.418Z,0.00
2023-01-21T07:45:25.116Z,0.00
2023-01-21T07:46:27.387Z,-0.10
2023-01-21T07:47:29.673Z,0.00
2023-01-21T07:48:32.401Z,0.00
2023-01-21T07:49:34.372Z,0.00
2023-01-21T07:50:37.076Z,0.00
2023-01-21T07:51:39.004Z,0.00
2023-01-21T07:52:43.034Z,0.00
2023-01-21T07:53:48.484Z,0.00
2023-01-21T07:54:52.531Z,0.10
2023-01-21T07:55:57.087Z,0.10
2023-01-21T07:56:59.071Z,0.10
2023-01-21T07:58:01.077Z,0.10
2023-01-21T07:59:02.917Z,0.10
2023-01-21T08:00:05.077Z,0.10
2023-01-21T08:01:13.447Z,0.10
2023-01-21T08:02:15.372Z,0.10
2023-01-21T08:03:20.101Z,0.10
2023-01-21T08:04:21.884Z,0.00
2023-01-21T08:05:25.188Z,0.00
2023-01-21T08:06:27.051Z,0.00
2023-01-21T08:07:29.604Z,0.00
2023-01-21T08:08:32.777Z,0.00
2023-01-21T08:09:35.794Z,0.10
2023-01-21T08:10:37.953Z,0.00
2023-01-21T08:11:39.874Z,0.00
2023-01-21T08:12:42.358Z,0.00
2023-01-21T08:13:45.431Z,0.00
2023-01-21T08:14:47.652Z,0.00
2023-01-21T08:15:53.849Z,0.00
2023-01-21T08:16:55.722Z,0.00
2023-01-21T08:17:57.795Z,0.00
2023-01-21T08:18:59.889Z,0.10
2023-01-21T08:20:02.790Z,0.10
2023-01-21T08:21:04.724Z,0.10
2023-01-21T08:22:06.558Z,0.10
2023-01-21T08:23:08.367Z,0.20
2023-01-21T08:24:10.510Z,0.20
2023-01-21T08:25:12.984Z,0.20
2023-01-21T08:26:14.798Z,0.20
2023-01-21T08:27:16.684Z,0.20
2023-01-21T08:28:18.524Z,0.20
2023-01-21T08:29:20.380Z,0.20
2023-01-21T08:30:22.379Z,0.20
2023-01-21T08:31:24.270Z,0.20
2023-01-21T08:32:26.123Z,0.20
2023-01-21T08:33:27.920Z,0.20
2023-01-21T08:34:29.766Z,0.20
2023-01-21T08:35:34.881Z,0.20
2023-01-21T08:36:38.661Z,0.20
2023-01-21T08:37:40.634Z,0.20
2023-01-21T08:38:44.030Z,0.10
2023-01-21T08:39:45.850Z,0.10
2023-01-21T08:40:47.901Z,0.10
2023-01-21T08:41:49.965Z,0.10
2023-01-21T08:42:53.121Z,0.10
2023-01-21T08:43:54.855Z,0.10
2023-01-21T08:44:56.655Z,0.10
2023-01-21T08:46:01.700Z,0.20
2023-01-21T08:47:03.670Z,0.20
2023-01-21T08:48:06.297Z,0.20
2023-01-21T08:49:08.593Z,0.20
2023-01-21T08:50:11.092Z,0.20
2023-01-21T08:51:13.220Z,0.20
2023-01-21T08:52:17.019Z,0.30
2023-01-21T08:53:18.950Z,0.30
2023-01-21T08:54:20.923Z,0.20
2023-01-21T08:55:26.787Z,0.20
2023-01-21T08:56:28.730Z,0.20
2023-01-21T08:57:30.521Z,0.20
2023-01-21T08:58:33.253Z,0.30
2023-01-21T08:59:36.155Z,0.30
2023-01-21T09:00:38.031Z,0.20
2023-01-21T09:01:41.547Z,0.30
2023-01-21T09:02:43.589Z,0.30
2023-01-21T09:03:45.809Z,0.30
2023-01-21T09:04:47.708Z,0.30
2023-01-21T09:05:51.745Z,0.30
2023-01-21T09:06:53.526Z,0.30
2023-01-21T09:07:58.061Z,0.30
2023-01-21T09:09:00.122Z,0.40
2023-01-21T09:10:03.313Z,0.40
2023-01-21T09:11:06.999Z,0.40
2023-01-21T09:12:09.158Z,0.40
2023-01-21T09:13:11.260Z,0.40
2023-01-21T09:14:13.373Z,0.40
2023-01-21T09:15:15.326Z,0.40
2023-01-21T09:16:20.755Z,0.40
2023-01-21T09:17:23.034Z,0.40
2023-01-21T09:18:25.759Z,0.50
2023-01-21T09:19:27.541Z,0.50
2023-01-21T09:20:29.399Z,0.50
2023-01-21T09:21:34.577Z,0.50
2023-01-21T09:22:36.469Z,0.60
2023-01-21T09:23:39.224Z,0.60
2023-01-21T09:24:41.357Z,0.60
2023-01-21T09:25:43.176Z,0.60
2023-01-21T09:26:45.573Z,0.60
2023-01-21T09:27:47.591Z,0.60
2023-01-21T09:28:57.960Z,0.60
2023-01-21T09:29:59.762Z,0.60
2023-01-21T09:31:04.799Z,0.60
2023-01-21T09:32:06.789Z,0.60
2023-01-21T09:33:09.639Z,0.60
2023-01-21T09:34:11.807Z,0.70
2023-01-21T09:35:13.751Z,0.70
2023-01-21T09:36:22.739Z,0.70
2023-01-21T09:37:24.842Z,0.70
2023-01-21T09:38:27.819Z,0.70
2023-01-21T09:39:29.642Z,0.70
2023-01-21T09:40:31.699Z,0.70
2023-01-21T09:41:48.654Z,0.80
2023-01-21T09:42:50.496Z,0.80
2023-01-21T09:44:17.918Z,0.80
2023-01-21T09:45:20.723Z,0.90
2023-01-21T09:46:44.107Z,0.90
2023-01-21T09:47:48.616Z,0.90
2023-01-21T09:48:51.524Z,0.90
2023-01-21T09:50:06.123Z,0.90
2023-01-21T09:51:27.472Z,1.00
2023-01-21T09:52:44.026Z,1.00
2023-01-21T09:53:52.466Z,1.00
2023-01-21T09:54:55.875Z,1.00
2023-01-21T09:56:01.120Z,1.00
2023-01-21T09:57:17.518Z,1.00
2023-01-21T09:58:28.531Z,1.10
2023-01-21T09:59:45.792Z,1.10
2023-01-21T10:01:16.812Z,1.10
2023-01-21T10:02:43.762Z,1.20
2023-01-21T10:03:54.681Z,1.20
2023-01-21T10:05:22.754Z,1.20
2023-01-21T10:06:30.585Z,1.20
2023-01-21T10:07:41.632Z,1.20
2023-01-21T10:09:05.548Z,1.20
2023-01-21T10:10:26.120Z,1.20
2023-01-21T10:11:39.092Z,1.20
2023-01-21T10:13:35.777Z,1.30
2023-01-21T10:15:15.301Z,1.30
2023-01-21T10:16:18.254Z,1.40
2023-01-21T10:17:52.258Z,1.40
2023-01-21T10:18:55.280Z,1.40
2023-01-21T10:20:14.392Z,1.40
2023-01-21T10:21:43.155Z,1.50
2023-01-21T10:22:52.804Z,1.50
2023-01-21T10:23:59.505Z,1.50
2023-01-21T10:25:20.316Z,1.50
2023-01-21T10:26:22.494Z,1.50
2023-01-21T10:27:26.019Z,1.50
2023-01-21T10:28:30.676Z,1.60
2023-01-21T10:29:36.027Z,1.60
2023-01-21T10:30:44.543Z,1.60
2023-01-21T10:31:59.805Z,1.50
2023-01-21T10:33:01.938Z,1.50
2023-01-21T10:34:15.456Z,1.50
2023-01-21T10:35:19.402Z,1.60
2023-01-21T10:36:50.144Z,1.60
2023-01-21T10:38:09.530Z,1.60
2023-01-21T10:39:30.310Z,1.70
2023-01-21T10:40:44.421Z,1.70
2023-01-21T10:41:49.139Z,1.70
2023-01-21T10:43:05.966Z,1.70
2023-01-21T10:44:40.168Z,1.70
2023-01-21T10:46:04.741Z,1.80
2023-01-21T10:47:48.955Z,1.80
2023-01-21T10:49:10.288Z,1.80
2023-01-21T10:50:33.556Z,1.90
2023-01-21T10:52:00.174Z,1.90
2023-01-21T10:53:25.237Z,1.90
2023-01-21T10:54:42.524Z,1.90
2023-01-21T10:55:52.956Z,1.90
2023-01-21T10:57:00.481Z,2.00
2023-01-21T10:58:11.351Z,1.90
2023-01-21T10:59:18.056Z,1.90
2023-01-21T11:00:24.441Z,2.00
2023-01-21T11:01:33.372Z,2.00
2023-01-21T11:02:35.277Z,2.00
2023-01-21T11:03:49.263Z,2.00
2023-01-21T11:04:51.917Z,2.00
2023-01-21T11:05:54.020Z,2.00
2023-01-21T11:07:04.755Z,2.00
2023-01-21T11:08:12.948Z,2.00
2023-01-21T11:09:15.550Z,2.00
2023-01-21T11:10:23.870Z,2.10
2023-01-21T11:11:29.646Z,2.10
2023-01-21T11:12:32.890Z,2.20
2023-01-21T11:13:35.496Z,2.20
2023-01-21T11:14:38.154Z,2.20
2023-01-21T11:15:46.871Z,2.20
2023-01-21T11:16:50.525Z,2.20
2023-01-21T11:17:57.093Z,2.30
2023-01-21T11:18:59.644Z,2.30
2023-01-21T11:20:05.035Z,2.30
2023-01-21T11:21:26.138Z,2.30
2023-01-21T11:22:31.601Z,2.30
2023-01-21T11:23:35.399Z,2.30
2023-01-21T11:24:51.051Z,2.20
2023-01-21T11:26:01.369Z,2.20
2023-01-21T11:27:03.641Z,2.20
2023-01-21T11:28:06.062Z,2.20
2023-01-21T11:29:16.595Z,2.20
2023-01-21T11:30:53.168Z,2.20
2023-01-21T11:32:20.400Z,2.20
2023-01-21T11:33:27.053Z,2.20
2023-01-21T11:34:29.294Z,2.30
2023-01-21T11:35:31.156Z,2.30
2023-01-21T11:36:33.351Z,2.30
2023-01-21T11:37:37.541Z,2.30
2023-01-21T11:38:39.776Z,2.40
2023-01-21T11:39:53.698Z,2.40
2023-01-21T11:41:15.608Z,2.40
2023-01-21T11:42:19.123Z,2.40
2023-01-21T11:43:40.876Z,2.40
2023-01-21T11:45:02.518Z,2.50
2023-01-21T11:46:34.028Z,2.60
2023-01-21T11:47:56.574Z,2.60
2023-01-21T11:49:20.059Z,2.60
2023-01-21T11:50:31.288Z,2.60
2023-01-21T11:51:34.189Z,2.60
2023-01-21T11:52:36.132Z,2.60
2023-01-21T11:53:38.420Z,2.60
2023-01-21T11:54:42.125Z,2.60
2023-01-21T11:55:58.565Z,2.70
2023-01-21T11:57:02.227Z,2.70
2023-01-21T11:58:04.315Z,2.80
2023-01-21T11:59:33.925Z,2.80
2023-01-21T12:00:36.887Z,2.90
2023-01-21T12:01:38.805Z,2.90
2023-01-21T12:02:46.183Z,2.90
2023-01-21T12:03:53.327Z,3.00
2023-01-21T12:05:01.632Z,2.90
2023-01-21T12:06:06.724Z,3.00
2023-01-21T12:07:21.320Z,3.00
2023-01-21T12:08:29.935Z,2.90
2023-01-21T12:09:33.568Z,2.90
2023-01-21T12:10:46.403Z,2.90
2023-01-21T12:12:07.071Z,2.90
2023-01-21T12:13:29.164Z,2.90
2023-01-21T12:14:58.764Z,2.90
2023-01-21T12:16:18.828Z,2.90
2023-01-21T12:17:30.454Z,2.80
2023-01-21T12:18:53.873Z,2.80
2023-01-21T12:20:01.737Z,2.70
2023-01-21T12:21:07.061Z,2.70
2023-01-21T12:22:56.711Z,2.70
2023-01-21T12:23:58.585Z,2.60
2023-01-21T12:25:20.863Z,2.60
2023-01-21T12:26:34.999Z,2.60
2023-01-21T12:27:57.109Z,2.50
2023-01-21T12:29:20.915Z,2.50
2023-01-21T12:30:40.784Z,2.50
2023-01-21T12:31:51.229Z,2.40
2023-01-21T12:33:00.227Z,2.40
2023-01-21T12:34:19.575Z,2.40
2023-01-21T12:35:28.903Z,2.40
2023-01-21T12:36:41.893Z,2.40
2023-01-21T12:37:59.052Z,2.30
2023-01-21T12:39:34.254Z,2.30
2023-01-21T12:41:02.753Z,2.30
2023-01-21T12:42:20.470Z,2.30
2023-01-21T12:43:36.778Z,2.30
2023-01-21T12:44:53.859Z,2.30
2023-01-21T12:46:27.383Z,2.20
2023-01-21T12:47:46.718Z,2.20
2023-01-21T12:49:17.027Z,2.20
2023-01-21T12:50:35.291Z,2.20
2023-01-21T12:51:41.872Z,2.20
2023-01-21T12:53:13.609Z,2.20
2023-01-21T12:54:18.588Z,2.20
2023-01-21T12:55:58.859Z,2.20
2023-01-21T12:57:08.287Z,2.10
2023-01-21T12:58:19.591Z,2.10
2023-01-21T12:59:49.776Z,2.20
2023-01-21T13:00:56.838Z,2.10
2023-01-21T13:02:25.307Z,2.20
2023-01-21T13:03:59.781Z,2.20
2023-01-21T13:05:11.611Z,2.30
2023-01-21T13:06:54.593Z,2.30
2023-01-21T13:08:26.819Z,2.30
2023-01-21T13:10:03.352Z,2.20
2023-01-21T13:11:35.021Z,2.20
2023-01-21T13:12:39.892Z,2.20
2023-01-21T13:14:07.674Z,2.10
2023-01-21T13:15:21.032Z,2.10
2023-01-21T13:16:26.278Z,2.10
2023-01-21T13:17:38.348Z,2.10
2023-01-21T13:18:43.438Z,2.10
2023-01-21T13:19:45.503Z,2.10
2023-01-21T13:21:06.598Z,2.10
2023-01-21T13:22:27.139Z,2.10
2023-01-21T13:23:31.919Z,2.10
2023-01-21T13:24:53.051Z,2.10
2023-01-21T13:26:06.752Z,2.10
2023-01-21T13:27:44.295Z,2.10
2023-01-21T13:28:57.232Z,2.10
2023-01-21T13:30:20.415Z,2.10
2023-01-21T13:31:43.635Z,2.20
2023-01-21T13:33:01.882Z,2.20
2023-01-21T13:34:25.354Z,2.20
2023-01-21T13:35:46.767Z,2.20
2023-01-21T13:37:10.941Z,2.10
2023-01-21T13:38:25.399Z,2.10
2023-01-21T13:39:41.181Z,2.10
2023-01-21T13:41:01.062Z,2.10
2023-01-21T13:42:41.111Z,2.10
2023-01-21T13:43:54.817Z,2.10
2023-01-21T13:45:27.024Z,2.10
2023-01-21T13:46:46.467Z,2.10
2023-01-21T13:48:05.794Z,2.20
2023-01-21T13:49:58.799Z,2.20
2023-01-21T13:51:15.726Z,2.10
2023-01-21T13:52:23.212Z,2.10
2023-01-21T13:53:50.752Z,2.10
2023-01-21T13:55:37.543Z,2.10
2023-01-21T13:56:42.718Z,2.20
2023-01-21T13:58:02.868Z,2.20
2023-01-21T13:59:14.140Z,2.20
2023-01-21T14:00:24.278Z,2.10
2023-01-21T14:01:45.717Z,2.10
2023-01-21T14:03:27.289Z,2.10
2023-01-21T14:04:48.799Z,2.10
2023-01-21T14:05:53.483Z,2.10
2023-01-21T14:07:01.870Z,2.10
2023-01-21T14:08:14.229Z,2.10
2023-01-21T14:09:32.992Z,2.10
2023-01-21T14:10:45.914Z,2.10
2023-01-21T14:12:20.442Z,2.10
2023-01-21T14:13:39.529Z,2.10
2023-01-21T14:14:56.665Z,2.10
2023-01-21T14:16:23.294Z,2.10
2023-01-21T14:18:03.350Z,2.10
2023-01-21T14:19:05.228Z,2.10
2023-01-21T14:20:11.756Z,2.10
2023-01-21T14:21:43.412Z,2.10
2023-01-21T14:22:51.251Z,2.10
2023-01-21T14:24:14.723Z,2.00
2023-01-21T14:25:30.510Z,2.00
2023-01-21T14:26:58.497Z,2.00
2023-01-21T14:28:16.234Z,2.00
2023-01-21T14:29:45.307Z,2.00
2023-01-21T14:31:12.294Z,2.00
2023-01-21T14:32:29.796Z,2.00
2023-01-21T14:33:46.882Z,2.00
2023-01-21T14:35:14.253Z,2.00
2023-01-21T14:36:18.031Z,2.00
2023-01-21T14:37:42.915Z,2.00
2023-01-21T14:39:08.660Z,1.90
2023-01-21T14:40:11.155Z,1.90
2023-01-21T14:41:13.830Z,1.90
2023-01-21T14:42:18.635Z,1.90
2023-01-21T14:43:32.549Z,1.90
2023-01-21T14:44:45.146Z,1.90
2023-01-21T14:45:50.966Z,1.90
2023-01-21T14:47:18.391Z,1.90
2023-01-21T14:48:35.588Z,1.90
2023-01-21T14:49:59.977Z,1.90
2023-01-21T14:51:07.638Z,1.90
2023-01-21T14:52:15.184Z,1.90
2023-01-21T14:53:26.637Z,1.90
2023-01-21T14:54:28.442Z,1.90
2023-01-21T14:55:32.796Z,1.90
2023-01-21T14:56:35.408Z,1.90
2023-01-21T14:57:41.583Z,1.90
2023-01-21T14:58:49.502Z,1.90
2023-01-21T14:59:54.334Z,1.90
2023-01-21T15:00:56.476Z,1.90